createdAt,value
2023-05-24T00:00:17.741Z,5.96
2023-05-24T00:01:19.647Z,5.75
2023-05-24T00:02:21.639Z,5.91
2023-05-24T00:03:23.944Z,6.18
2023-05-24T00:04:27.262Z,5.76
2023-05-24T00:05:30.369Z,5.50
2023-05-24T00:06:32.376Z,6.33
2023-05-24T00:07:34.252Z,6.15
2023-05-24T00:08:36.260Z,5.89
2023-05-24T00:09:38.293Z,6.29
2023-05-24T00:10:40.539Z,5.94
2023-05-24T00:11:42.913Z,5.61
2023-05-24T00:12:45.155Z,5.74
2023-05-24T00:13:47.742Z,5.71
2023-05-24T00:14:49.690Z,5.33
2023-05-24T00:15:52.158Z,5.99
2023-05-24T00:16:54.349Z,5.85
2023-05-24T00:17:56.420Z,5.58
2023-05-24T00:18:59.363Z,5.38
2023-05-24T00:20:01.531Z,5.45
2023-05-24T00:21:03.470Z,5.73
2023-05-24T00:22:05.489Z,5.20
2023-05-24T00:23:07.451Z,4.79
2023-05-24T00:24:09.495Z,5.43
2023-05-24T00:25:11.410Z,5.66
2023-05-24T00:26:14.665Z,5.07
2023-05-24T00:27:17.098Z,5.25
2023-05-24T00:28:18.984Z,5.64
2023-05-24T00:29:20.888Z,5.65
2023-05-24T00:30:22.981Z,6.06
2023-05-24T00:31:25.044Z,5.81
2023-05-24T00:32:27.309Z,5.28
2023-05-24T00:33:29.263Z,5.63
2023-05-24T00:34:31.228Z,5.66
2023-05-24T00:35:33.116Z,5.44
2023-05-24T00:36:35.141Z,5.27
2023-05-24T00:37:37.123Z,5.77
2023-05-24T00:38:39.000Z,5.55
2023-05-24T00:39:41.021Z,6.21
2023-05-24T00:40:43.191Z,5.48
2023-05-24T00:41:45.397Z,5.57
2023-05-24T00:42:47.404Z,5.69
2023-05-24T00:43:49.327Z,6.43
2023-05-24T00:44:51.231Z,5.89
2023-05-24T00:47:10.243Z,5.46
2023-05-24T00:48:13.511Z,5.24
2023-05-24T00:49:15.469Z,5.15
2023-05-24T00:50:18.487Z,4.94
2023-05-24T00:51:21.578Z,5.33
2023-05-24T00:52:23.585Z,6.03
2023-05-24T00:53:25.452Z,5.73
2023-05-24T00:54:28.867Z,6.73
2023-05-24T00:55:31.762Z,7.70
2023-05-24T00:56:35.047Z,7.67
2023-05-24T00:57:37.362Z,6.77
2023-05-24T00:58:39.649Z,6.14
2023-05-24T00:59:42.321Z,6.22
2023-05-24T01:00:47.113Z,5.57
2023-05-24T01:01:49.780Z,5.81
2023-05-24T01:02:51.809Z,5.71
2023-05-24T01:03:54.866Z,5.57
2023-05-24T01:04:57.813Z,6.24
2023-05-24T01:06:02.621Z,6.22
2023-05-24T01:07:14.316Z,6.27
2023-05-24T01:08:40.135Z,5.67
2023-05-24T01:11:36.915Z,6.33
2023-05-24T01:14:18.426Z,6.17
2023-05-24T01:15:41.208Z,5.92
2023-05-24T01:16:55.872Z,5.84
2023-05-24T01:18:23.161Z,5.96
2023-05-24T01:19:52.288Z,6.08
2023-05-24T01:21:07.519Z,6.44
2023-05-24T01:22:25.608Z,6.11
2023-05-24T01:23:34.384Z,6.68
2023-05-24T01:24:42.937Z,6.74
2023-05-24T01:26:04.123Z,5.87
2023-05-24T01:27:08.211Z,5.93
2023-05-24T01:28:11.649Z,6.18
2023-05-24T01:29:15.100Z,5.78
2023-05-24T01:30:18.277Z,6.37
2023-05-24T01:31:21.538Z,6.03
2023-05-24T01:32:24.037Z,6.13
2023-05-24T01:33:26.539Z,6.17
2023-05-24T01:34:29.310Z,5.81
2023-05-24T01:35:31.334Z,6.12
2023-05-24T01:36:33.523Z,6.15
2023-05-24T01:37:35.395Z,7.09
2023-05-24T01:38:38.546Z,6.35
2023-05-24T01:39:41.075Z,6.02
2023-05-24T01:40:45.723Z,5.37
2023-05-24T01:42:13.088Z,6.06
2023-05-24T01:43:18.864Z,6.07
2023-05-24T01:44:54.620Z,6.46
2023-05-24T01:46:11.927Z,6.37
2023-05-24T01:47:26.947Z,6.21
2023-05-24T01:48:48.116Z,5.76
2023-05-24T01:49:53.910Z,6.23
2023-05-24T01:50:58.433Z,5.83
2023-05-24T01:52:04.237Z,6.51
2023-05-24T01:53:09.980Z,5.97
2023-05-24T01:54:13.848Z,5.48
2023-05-24T01:55:17.832Z,5.89
2023-05-24T01:56:20.520Z,5.96
2023-05-24T01:57:26.262Z,5.71
2023-05-24T01:58:30.293Z,5.51
2023-05-24T01:59:33.480Z,5.82
2023-05-24T02:00:37.919Z,5.36
2023-05-24T02:01:41.280Z,5.60
2023-05-24T02:02:44.366Z,5.35
2023-05-24T02:03:46.988Z,6.12
2023-05-24T02:04:50.461Z,5.90
2023-05-24T02:05:52.368Z,5.54
2023-05-24T02:06:54.477Z,5.69
2023-05-24T02:07:57.591Z,5.69
2023-05-24T02:08:59.524Z,5.94
2023-05-24T02:10:01.629Z,5.67
2023-05-24T02:11:03.515Z,6.31
2023-05-24T02:12:06.727Z,5.95
2023-05-24T02:13:08.970Z,6.98
2023-05-24T02:14:10.971Z,5.25
2023-05-24T02:15:12.866Z,5.58
2023-05-24T02:16:14.990Z,5.37
2023-05-24T02:17:17.988Z,5.99
2023-05-24T02:18:20.124Z,5.96
2023-05-24T02:19:22.024Z,5.75
2023-05-24T02:20:24.027Z,5.78
2023-05-24T02:21:27.830Z,5.57
2023-05-24T02:22:29.862Z,5.79
2023-05-24T02:23:31.894Z,5.79
2023-05-24T02:24:34.856Z,5.59
2023-05-24T02:25:37.109Z,5.70
2023-05-24T02:26:39.320Z,5.87
2023-05-24T02:27:41.642Z,5.19
2023-05-24T02:28:44.074Z,6.21
2023-05-24T02:29:46.160Z,5.47
2023-05-24T02:30:48.250Z,5.63
2023-05-24T02:31:50.370Z,5.94
2023-05-24T02:32:52.277Z,5.07
2023-05-24T02:33:55.603Z,6.41
2023-05-24T02:34:58.312Z,6.04
2023-05-24T02:36:00.515Z,5.39
2023-05-24T02:37:02.567Z,6.51
2023-05-24T02:38:04.469Z,5.27
2023-05-24T02:39:06.602Z,5.77
2023-05-24T02:40:10.327Z,5.97
2023-05-24T02:41:12.352Z,6.26
2023-05-24T02:42:14.390Z,6.13
2023-05-24T02:43:16.579Z,5.52
2023-05-24T02:44:18.916Z,6.29
2023-05-24T02:45:20.843Z,5.87
2023-05-24T02:46:22.883Z,6.39
2023-05-24T02:47:24.888Z,6.30
2023-05-24T02:48:26.877Z,6.07
2023-05-24T02:49:28.887Z,6.11
2023-05-24T02:50:31.154Z,5.54
2023-05-24T02:51:33.054Z,6.34
2023-05-24T02:52:35.154Z,5.67
2023-05-24T02:53:37.194Z,6.17
2023-05-24T02:54:39.947Z,6.73
2023-05-24T02:55:42.160Z,5.99
2023-05-24T02:56:44.366Z,5.93
2023-05-24T02:57:47.313Z,5.98
2023-05-24T02:58:50.467Z,6.13
2023-05-24T02:59:52.365Z,6.28
2023-05-24T03:00:54.758Z,6.46
2023-05-24T03:01:56.739Z,6.20
2023-05-24T03:02:58.846Z,6.10
2023-05-24T03:04:01.668Z,5.50
2023-05-24T03:05:04.872Z,6.53
2023-05-24T03:06:07.303Z,6.37
2023-05-24T03:07:09.334Z,5.98
2023-05-24T03:08:11.345Z,6.73
2023-05-24T03:09:13.297Z,6.85
2023-05-24T03:10:16.115Z,6.60
2023-05-24T03:11:18.240Z,6.41
2023-05-24T03:12:20.230Z,6.41
2023-05-24T03:13:22.133Z,5.91
2023-05-24T03:14:24.160Z,6.31
2023-05-24T03:15:26.196Z,6.41
2023-05-24T03:16:28.241Z,6.38
2023-05-24T03:17:30.261Z,6.77
2023-05-24T03:18:32.435Z,7.01
2023-05-24T03:19:35.062Z,6.01
2023-05-24T03:20:37.213Z,6.25
2023-05-24T03:21:39.249Z,6.72
2023-05-24T03:22:41.553Z,6.73
2023-05-24T03:23:43.598Z,7.01
2023-05-24T03:24:46.456Z,6.59
2023-05-24T03:25:48.456Z,6.29
2023-05-24T03:26:51.680Z,6.51
2023-05-24T03:27:53.596Z,6.88
2023-05-24T03:28:55.584Z,6.44
2023-05-24T03:29:57.676Z,6.67
2023-05-24T03:30:59.673Z,7.53
2023-05-24T03:32:01.772Z,6.79
2023-05-24T03:33:03.822Z,5.89
2023-05-24T03:34:05.757Z,6.63
2023-05-24T03:35:08.479Z,6.25
2023-05-24T03:36:10.900Z,6.72
2023-05-24T03:37:12.789Z,6.08
2023-05-24T03:38:14.687Z,6.09
2023-05-24T03:39:16.576Z,5.98
2023-05-24T03:40:18.662Z,7.18
2023-05-24T03:41:20.573Z,6.53
2023-05-24T03:42:22.604Z,6.67
2023-05-24T03:43:25.318Z,6.41
2023-05-24T03:44:27.314Z,6.68
2023-05-24T03:45:38.712Z,6.11
2023-05-24T03:46:33.283Z,6.30
2023-05-24T03:47:35.370Z,5.75
2023-05-24T03:48:37.429Z,6.69
2023-05-24T03:49:39.306Z,6.89
2023-05-24T03:50:41.435Z,7.13
2023-05-24T03:51:43.890Z,7.32
2023-05-24T03:52:46.522Z,7.32
2023-05-24T03:53:48.571Z,7.49
2023-05-24T03:54:50.478Z,7.38
2023-05-24T03:55:52.364Z,8.04
2023-05-24T03:56:54.350Z,7.86
2023-05-24T03:57:56.277Z,7.55
2023-05-24T03:58:58.621Z,7.58
2023-05-24T04:00:00.508Z,8.08
2023-05-24T04:01:02.388Z,7.26
2023-05-24T04:02:04.618Z,7.42
2023-05-24T04:03:06.827Z,7.54
2023-05-24T04:04:08.946Z,7.61
2023-05-24T04:05:12.831Z,7.79
2023-05-24T04:06:17.553Z,7.45
2023-05-24T04:07:19.603Z,6.78
2023-05-24T04:08:21.530Z,7.33
2023-05-24T04:09:24.259Z,7.73
2023-05-24T04:10:26.520Z,8.12
2023-05-24T04:11:28.692Z,7.15
2023-05-24T04:12:30.930Z,7.88
2023-05-24T04:13:32.944Z,7.82
2023-05-24T04:14:34.963Z,7.36
2023-05-24T04:15:37.032Z,7.69
2023-05-24T04:16:39.040Z,7.59
2023-05-24T04:17:42.365Z,7.69
2023-05-24T04:18:45.310Z,8.21
2023-05-24T04:19:47.369Z,8.90
2023-05-24T04:20:49.547Z,7.82
2023-05-24T04:21:51.556Z,7.88
2023-05-24T04:22:53.706Z,7.05
2023-05-24T04:23:55.588Z,7.28
2023-05-24T04:24:57.584Z,7.47
2023-05-24T04:25:59.663Z,8.03
2023-05-24T04:27:02.076Z,7.95
2023-05-24T04:28:04.296Z,7.85
2023-05-24T04:29:06.187Z,8.33
2023-05-24T04:30:09.269Z,7.56
2023-05-24T04:31:11.202Z,7.15
2023-05-24T04:32:13.258Z,8.17
2023-05-24T04:33:15.136Z,7.55
2023-05-24T04:34:17.632Z,7.69
2023-05-24T04:35:19.550Z,7.68
2023-05-24T04:36:21.618Z,8.79
2023-05-24T04:37:23.650Z,7.81
2023-05-24T04:38:25.553Z,7.86
2023-05-24T04:39:29.620Z,7.67
2023-05-24T04:40:31.759Z,6.28
2023-05-24T04:41:33.981Z,7.15
2023-05-24T04:42:36.031Z,7.49
2023-05-24T04:43:37.948Z,8.37
2023-05-24T04:44:40.412Z,6.76
2023-05-24T04:45:42.336Z,6.71
2023-05-24T04:46:44.498Z,7.94
2023-05-24T04:47:46.746Z,6.90
2023-05-24T04:48:48.816Z,7.95
2023-05-24T04:49:51.278Z,6.33
2023-05-24T04:50:55.383Z,6.31
2023-05-24T04:51:57.828Z,7.88
2023-05-24T04:52:59.921Z,7.17
2023-05-24T04:54:01.911Z,6.98
2023-05-24T04:55:05.139Z,6.97
2023-05-24T04:56:07.505Z,6.61
2023-05-24T04:57:10.055Z,6.48
2023-05-24T04:58:12.047Z,7.03
2023-05-24T04:59:14.051Z,6.96
2023-05-24T05:00:17.231Z,7.01
2023-05-24T05:01:19.795Z,8.70
2023-05-24T05:02:22.025Z,6.79
2023-05-24T05:03:24.186Z,6.87
2023-05-24T05:04:26.197Z,6.24
2023-05-24T05:05:28.331Z,6.46
2023-05-24T05:06:30.339Z,6.78
2023-05-24T05:07:32.465Z,7.03
2023-05-24T05:08:34.376Z,7.32
2023-05-24T05:09:36.404Z,7.35
2023-05-24T05:10:38.507Z,6.69
2023-05-24T05:11:40.913Z,6.95
2023-05-24T05:12:42.936Z,7.21
2023-05-24T05:13:45.054Z,7.01
2023-05-24T05:14:47.081Z,7.53
2023-05-24T05:15:49.143Z,6.71
2023-05-24T05:16:51.410Z,8.03
2023-05-24T05:17:53.377Z,7.89
2023-05-24T05:18:55.426Z,7.06
2023-05-24T05:19:57.462Z,7.74
2023-05-24T05:21:00.146Z,8.13
2023-05-24T05:22:02.177Z,7.81
2023-05-24T05:23:04.175Z,7.60
2023-05-24T05:24:06.085Z,6.41
2023-05-24T05:25:08.512Z,7.45
2023-05-24T05:26:11.181Z,7.25
2023-05-24T05:27:13.097Z,7.49
2023-05-24T05:28:15.039Z,7.05
2023-05-24T05:29:17.076Z,7.11
2023-05-24T05:30:19.076Z,7.51
2023-05-24T05:31:23.394Z,7.49
2023-05-24T05:32:25.399Z,7.35
2023-05-24T05:33:30.111Z,7.66
2023-05-24T05:34:32.247Z,7.08
2023-05-24T05:35:34.297Z,6.77
2023-05-24T05:36:37.665Z,6.81
2023-05-24T05:37:39.694Z,7.39
2023-05-24T05:38:41.763Z,7.25
2023-05-24T05:39:43.777Z,5.79
2023-05-24T05:40:45.903Z,6.72
2023-05-24T05:41:47.801Z,5.79
2023-05-24T05:42:49.814Z,5.72
2023-05-24T05:43:51.696Z,6.16
2023-05-24T05:44:53.680Z,6.73
2023-05-24T05:45:55.590Z,5.25
2023-05-24T05:46:58.179Z,5.74
2023-05-24T05:48:00.363Z,5.47
2023-05-24T05:49:02.356Z,5.37
2023-05-24T05:50:05.524Z,5.83
2023-05-24T05:51:07.593Z,5.68
2023-05-24T05:52:09.524Z,6.25
2023-05-24T05:53:11.601Z,5.81
2023-05-24T05:54:13.520Z,6.44
2023-05-24T05:55:15.872Z,6.07
2023-05-24T05:56:17.850Z,6.34
2023-05-24T05:57:19.736Z,5.87
2023-05-24T05:58:21.806Z,5.81
2023-05-24T05:59:23.697Z,5.64
2023-05-24T06:00:25.702Z,6.33
2023-05-24T06:01:27.785Z,5.28
2023-05-24T06:02:29.815Z,4.90
2023-05-24T06:03:31.926Z,4.60
2023-05-24T06:04:34.335Z,4.27
2023-05-24T06:05:36.373Z,3.98
2023-05-24T06:06:38.344Z,4.33
2023-05-24T06:07:40.246Z,4.03
2023-05-24T06:08:42.131Z,3.96
2023-05-24T06:09:44.408Z,4.33
2023-05-24T06:10:46.740Z,7.25
2023-05-24T06:11:48.645Z,8.72
2023-05-24T06:12:50.622Z,6.29
2023-05-24T06:13:53.374Z,5.59
2023-05-24T06:14:55.266Z,4.81
2023-05-24T06:15:57.402Z,4.63
2023-05-24T06:17:00.405Z,4.65
2023-05-24T06:18:02.772Z,3.81
2023-05-24T06:19:06.679Z,4.73
2023-05-24T06:20:10.490Z,7.00
2023-05-24T06:21:14.864Z,11.54
2023-05-24T06:22:17.079Z,5.81
2023-05-24T06:23:18.961Z,4.07
2023-05-24T06:24:20.915Z,3.86
2023-05-24T06:25:23.130Z,3.28
2023-05-24T06:26:25.133Z,3.54
2023-05-24T06:27:27.019Z,3.45
2023-05-24T06:28:28.898Z,3.07
2023-05-24T06:29:30.923Z,3.65
2023-05-24T06:30:33.298Z,3.79
2023-05-24T06:31:35.527Z,2.98
2023-05-24T06:32:37.521Z,2.89
2023-05-24T06:33:42.693Z,2.88
2023-05-24T06:34:43.964Z,2.95
2023-05-24T06:35:45.985Z,2.56
2023-05-24T06:36:48.276Z,3.21
2023-05-24T06:37:50.173Z,2.85
2023-05-24T06:38:52.452Z,2.93
2023-05-24T06:39:54.407Z,2.97
2023-05-24T06:40:56.378Z,3.29
2023-05-24T06:41:58.255Z,3.57
2023-05-24T06:43:00.161Z,3.45
2023-05-24T06:44:02.236Z,3.53
2023-05-24T06:45:06.045Z,3.19
2023-05-24T06:46:08.388Z,3.83
2023-05-24T06:47:10.332Z,3.68
2023-05-24T06:48:12.359Z,3.44
2023-05-24T06:49:14.416Z,3.07
2023-05-24T06:50:17.334Z,3.29
2023-05-24T06:51:19.254Z,3.13
2023-05-24T06:52:21.253Z,3.04
2023-05-24T06:53:23.390Z,2.85
2023-05-24T06:54:25.394Z,3.02
2023-05-24T06:55:27.564Z,3.07
2023-05-24T06:56:29.804Z,2.89
2023-05-24T06:57:31.852Z,3.03
2023-05-24T06:58:33.744Z,2.93
2023-05-24T06:59:35.665Z,2.81
2023-05-24T07:00:37.797Z,3.57
2023-05-24T07:01:40.147Z,3.36
2023-05-24T07:02:42.481Z,2.77
2023-05-24T07:03:44.698Z,2.47
2023-05-24T07:04:46.731Z,2.48
2023-05-24T07:05:48.819Z,1.95
2023-05-24T07:06:51.927Z,2.10
2023-05-24T07:07:55.149Z,1.98
2023-05-24T07:08:57.695Z,1.82
2023-05-24T07:09:59.628Z,1.93
2023-05-24T07:11:01.666Z,1.91
2023-05-24T07:12:04.682Z,2.22
2023-05-24T07:13:08.004Z,1.71
2023-05-24T07:14:10.025Z,2.09
2023-05-24T07:15:12.026Z,1.76
2023-05-24T07:16:14.246Z,2.93
2023-05-24T07:17:16.377Z,7.91
2023-05-24T07:18:18.651Z,6.27
2023-05-24T07:19:20.632Z,4.17
2023-05-24T07:20:22.824Z,4.01
2023-05-24T07:21:25.011Z,2.03
2023-05-24T07:22:26.910Z,1.88
2023-05-24T07:23:28.961Z,1.93
2023-05-24T07:24:30.907Z,1.51
2023-05-24T07:25:33.231Z,2.18
2023-05-24T07:26:35.465Z,1.56
2023-05-24T07:27:37.645Z,1.83
2023-05-24T07:28:39.656Z,1.76
2023-05-24T07:29:41.692Z,1.63
2023-05-24T07:30:45.290Z,1.76
2023-05-24T07:31:47.298Z,1.21
2023-05-24T07:32:49.841Z,1.53
2023-05-24T07:33:51.840Z,1.57
2023-05-24T07:34:54.041Z,1.48
2023-05-24T07:35:56.080Z,1.43
2023-05-24T07:36:58.330Z,1.75
2023-05-24T07:38:00.331Z,1.48
2023-05-24T07:39:02.261Z,2.01
2023-05-24T07:40:05.861Z,1.77
2023-05-24T07:41:07.875Z,1.71
2023-05-24T07:42:09.782Z,2.06
2023-05-24T07:43:11.787Z,1.80
2023-05-24T07:44:13.925Z,1.60
2023-05-24T07:45:15.879Z,2.03
2023-05-24T07:46:18.237Z,1.68
2023-05-24T07:47:20.197Z,1.80
2023-05-24T07:48:22.905Z,1.81
2023-05-24T07:49:24.827Z,2.17
2023-05-24T07:50:27.036Z,1.56
2023-05-24T07:51:28.952Z,1.82
2023-05-24T07:52:30.852Z,1.87
2023-05-24T07:53:32.834Z,1.85
2023-05-24T07:54:34.714Z,1.33
2023-05-24T07:55:36.709Z,1.73
2023-05-24T07:56:41.420Z,1.94
2023-05-24T07:57:43.356Z,1.60
2023-05-24T07:58:45.347Z,1.66
2023-05-24T07:59:47.253Z,1.63
2023-05-24T08:00:49.254Z,1.52
2023-05-24T08:01:51.168Z,1.73
2023-05-24T08:02:53.236Z,1.69
2023-05-24T08:03:56.478Z,1.39
2023-05-24T08:04:58.630Z,1.70
2023-05-24T08:06:00.548Z,1.74
2023-05-24T08:07:02.892Z,1.85
2023-05-24T08:08:05.088Z,1.90
2023-05-24T08:09:07.383Z,4.62
2023-05-24T08:10:10.191Z,3.09
2023-05-24T08:11:12.094Z,2.15
2023-05-24T08:12:16.952Z,2.09
2023-05-24T08:13:17.820Z,3.09
2023-05-24T08:14:19.842Z,2.06
2023-05-24T08:15:22.164Z,2.39
2023-05-24T08:16:24.238Z,2.06
2023-05-24T08:17:27.140Z,1.77
2023-05-24T08:18:29.137Z,1.99
2023-05-24T08:19:31.027Z,1.75
2023-05-24T08:20:33.227Z,4.54
2023-05-24T08:21:35.598Z,4.28
2023-05-24T08:22:37.524Z,4.36
2023-05-24T08:23:39.610Z,2.96
2023-05-24T08:24:41.477Z,2.49
2023-05-24T08:25:43.573Z,2.28
2023-05-24T08:26:45.966Z,2.57
2023-05-24T08:27:49.073Z,2.24
2023-05-24T08:28:51.415Z,2.37
2023-05-24T08:29:56.816Z,2.46
2023-05-24T08:30:58.272Z,1.69
2023-05-24T08:32:00.215Z,1.74
2023-05-24T08:33:02.782Z,2.15
2023-05-24T08:34:05.182Z,3.06
2023-05-24T08:35:19.149Z,3.67
2023-05-24T08:36:11.380Z,3.09
2023-05-24T08:37:15.500Z,4.09
2023-05-24T08:38:17.946Z,4.79
2023-05-24T08:39:19.963Z,4.33
2023-05-24T08:40:21.970Z,3.51
2023-05-24T08:41:24.251Z,2.54
2023-05-24T08:42:28.096Z,3.41
2023-05-24T08:43:32.615Z,1.92
2023-05-24T08:44:41.119Z,2.09
2023-05-24T08:45:44.912Z,1.88
2023-05-24T08:46:48.262Z,2.09
2023-05-24T08:47:51.322Z,1.98
2023-05-24T08:48:56.693Z,1.72
2023-05-24T08:50:00.048Z,1.89
2023-05-24T08:51:03.007Z,2.09
2023-05-24T08:52:05.738Z,1.81
2023-05-24T08:53:09.562Z,1.93
2023-05-24T08:54:13.330Z,1.87
2023-05-24T08:55:16.277Z,2.41
2023-05-24T08:56:18.608Z,2.14
2023-05-24T08:57:21.847Z,1.99
2023-05-24T08:58:24.238Z,1.94
2023-05-24T08:59:26.237Z,2.00
2023-05-24T09:00:28.214Z,2.05
2023-05-24T09:01:32.214Z,2.35
2023-05-24T09:02:35.844Z,2.25
2023-05-24T09:03:41.213Z,1.95
2023-05-24T09:04:45.605Z,2.01
2023-05-24T09:05:47.904Z,2.63
2023-05-24T09:06:51.612Z,2.25
2023-05-24T09:07:56.364Z,1.96
2023-05-24T09:09:00.124Z,1.83
2023-05-24T09:10:07.870Z,2.36
2023-05-24T09:11:11.048Z,2.29
2023-05-24T09:12:21.759Z,2.55
2023-05-24T09:13:23.092Z,2.09
2023-05-24T09:14:25.273Z,1.94
2023-05-24T09:15:28.457Z,2.33
2023-05-24T09:16:32.146Z,1.69
2023-05-24T09:17:35.859Z,2.00
2023-05-24T09:18:39.876Z,1.79
2023-05-24T09:19:45.686Z,2.42
2023-05-24T09:20:49.947Z,2.14
2023-05-24T09:21:53.146Z,2.15
2023-05-24T09:22:56.227Z,2.22
2023-05-24T09:23:58.978Z,1.77
2023-05-24T09:25:02.548Z,1.86
2023-05-24T09:26:08.755Z,2.10
2023-05-24T09:27:10.683Z,1.72
2023-05-24T09:28:14.894Z,1.69
2023-05-24T09:30:30.236Z,1.93
2023-05-24T09:31:34.052Z,1.61
2023-05-24T09:32:36.178Z,1.68
2023-05-24T09:33:39.005Z,1.62
2023-05-24T09:34:42.706Z,1.31
2023-05-24T09:35:44.766Z,1.78
2023-05-24T09:36:46.997Z,1.66
2023-05-24T09:37:48.882Z,2.21
2023-05-24T09:39:09.298Z,1.84
2023-05-24T09:41:28.419Z,1.86
2023-05-24T09:42:30.338Z,2.03
2023-05-24T09:43:34.063Z,1.85
2023-05-24T09:44:35.974Z,1.57
2023-05-24T09:45:44.489Z,1.84
2023-05-24T09:46:46.605Z,1.46
2023-05-24T09:47:48.671Z,1.61
2023-05-24T09:49:01.173Z,1.44
2023-05-24T09:50:05.596Z,1.83
2023-05-24T09:51:08.203Z,1.86
2023-05-24T09:52:15.619Z,1.45
2023-05-24T09:53:17.671Z,1.89
2023-05-24T09:54:20.181Z,1.75
2023-05-24T09:55:23.234Z,1.80
2023-05-24T09:56:26.506Z,2.14
2023-05-24T09:57:28.562Z,2.09
2023-05-24T09:58:31.631Z,2.36
2023-05-24T09:59:33.939Z,2.22
2023-05-24T10:00:42.089Z,1.87
2023-05-24T10:01:44.947Z,2.89
2023-05-24T10:03:02.261Z,3.03
2023-05-24T10:04:06.883Z,2.29
2023-05-24T10:05:10.260Z,2.05
2023-05-24T10:06:12.788Z,2.18
2023-05-24T10:07:17.302Z,1.93
2023-05-24T10:08:20.644Z,2.46
2023-05-24T10:09:22.761Z,2.74
2023-05-24T10:10:30.525Z,2.20
2023-05-24T10:11:34.494Z,2.66
2023-05-24T10:12:37.213Z,2.68
2023-05-24T10:13:39.656Z,2.23
2023-05-24T10:14:42.588Z,1.93
2023-05-24T10:15:44.483Z,3.51
2023-05-24T10:16:46.679Z,3.52
2023-05-24T10:17:48.833Z,3.35
2023-05-24T10:18:50.985Z,2.40
2023-05-24T10:19:53.113Z,2.37
2023-05-24T10:20:56.610Z,2.51
2023-05-24T10:22:00.660Z,2.44
2023-05-24T10:23:06.409Z,3.09
2023-05-24T10:24:10.861Z,3.04
2023-05-24T10:26:29.167Z,2.97
2023-05-24T10:27:32.406Z,3.04
2023-05-24T10:28:38.126Z,2.96
2023-05-24T10:29:56.048Z,2.81
2023-05-24T10:31:13.802Z,2.81
2023-05-24T10:32:18.949Z,4.33
2023-05-24T10:33:23.296Z,2.93
2023-05-24T10:34:25.978Z,2.74
2023-05-24T10:35:29.809Z,3.39
2023-05-24T10:36:33.125Z,2.86
2023-05-24T10:37:35.083Z,3.01
2023-05-24T10:38:38.508Z,2.77
2023-05-24T10:39:41.674Z,3.15
2023-05-24T10:40:43.931Z,2.86
2023-05-24T10:41:45.849Z,2.93
2023-05-24T10:42:48.418Z,2.09
2023-05-24T10:44:07.814Z,2.14
2023-05-24T10:44:56.475Z,1.88
2023-05-24T10:45:58.551Z,2.08
2023-05-24T10:47:12.399Z,2.43
2023-05-24T10:48:18.100Z,2.98
2023-05-24T10:49:22.677Z,3.58
2023-05-24T10:50:24.905Z,2.01
2023-05-24T10:51:34.240Z,2.37
2023-05-24T10:52:36.750Z,2.54
2023-05-24T10:53:38.913Z,2.30
2023-05-24T10:55:04.029Z,2.58
2023-05-24T10:56:08.455Z,3.19
2023-05-24T10:57:10.534Z,1.94
2023-05-24T10:58:12.421Z,1.91
2023-05-24T10:59:24.041Z,3.15
2023-05-24T11:00:35.395Z,3.26
2023-05-24T11:01:32.748Z,4.72
2023-05-24T11:02:34.896Z,2.96
2023-05-24T11:03:40.466Z,2.99
2023-05-24T11:04:45.918Z,2.07
2023-05-24T11:05:51.041Z,1.89
2023-05-24T11:06:59.306Z,3.52
2023-05-24T11:08:01.900Z,2.12
2023-05-24T11:09:07.661Z,2.05
2023-05-24T11:10:14.953Z,3.65
2023-05-24T11:11:26.767Z,4.59
2023-05-24T11:12:28.315Z,2.88
2023-05-24T11:13:32.472Z,1.99
2023-05-24T11:14:37.452Z,1.34
2023-05-24T11:15:41.550Z,1.41
2023-05-24T11:16:45.706Z,1.39
2023-05-24T11:18:10.183Z,1.38
2023-05-24T11:19:23.311Z,1.51
2023-05-24T11:20:25.790Z,3.79
2023-05-24T11:21:28.044Z,2.48
2023-05-24T11:22:30.384Z,1.54
2023-05-24T11:23:33.176Z,2.73
2023-05-24T11:24:36.208Z,3.39
2023-05-24T11:25:38.389Z,1.97
2023-05-24T11:26:40.645Z,2.37
2023-05-24T11:27:44.989Z,3.39
2023-05-24T11:28:48.105Z,2.01
2023-05-24T11:29:51.257Z,2.84
2023-05-24T11:30:53.280Z,2.30
2023-05-24T11:31:59.622Z,3.29
2023-05-24T11:33:01.664Z,2.98
2023-05-24T11:34:03.741Z,2.59
2023-05-24T11:35:06.778Z,1.97
2023-05-24T11:36:09.725Z,1.80
2023-05-24T11:37:14.588Z,1.54
2023-05-24T11:38:17.048Z,0.99
2023-05-24T11:39:18.967Z,1.07
2023-05-24T11:40:21.138Z,1.79
2023-05-24T11:41:23.249Z,1.49
2023-05-24T11:42:27.852Z,1.50
2023-05-24T11:43:30.225Z,1.68
2023-05-24T11:44:33.607Z,2.58
2023-05-24T11:45:36.324Z,1.95
2023-05-24T11:46:39.736Z,2.28
2023-05-24T11:47:42.165Z,1.89
2023-05-24T11:48:56.622Z,2.05
2023-05-24T11:49:58.745Z,2.51
2023-05-24T11:51:00.747Z,1.61
2023-05-24T11:52:03.103Z,1.83
2023-05-24T11:53:05.024Z,1.88
2023-05-24T11:54:07.422Z,1.41
2023-05-24T11:55:14.969Z,1.72
2023-05-24T11:56:16.612Z,3.01
2023-05-24T11:57:22.954Z,3.89
2023-05-24T11:58:31.586Z,4.91
2023-05-24T11:59:33.548Z,4.66
2023-05-24T12:00:35.643Z,2.91
2023-05-24T12:01:37.675Z,2.18
2023-05-24T12:02:39.756Z,1.93
2023-05-24T12:03:42.503Z,5.43
2023-05-24T12:04:44.822Z,2.01
2023-05-24T12:05:46.980Z,2.45
2023-05-24T12:06:49.074Z,1.61
2023-05-24T12:08:02.746Z,2.17
2023-05-24T12:09:06.054Z,2.14
2023-05-24T12:10:09.213Z,2.01
2023-05-24T12:11:11.870Z,2.27
2023-05-24T12:12:13.992Z,3.05
2023-05-24T12:13:27.344Z,1.56
2023-05-24T12:14:32.349Z,1.56
2023-05-24T12:15:34.426Z,1.34
2023-05-24T12:16:36.849Z,1.58
2023-05-24T12:17:38.840Z,0.92
2023-05-24T12:18:48.473Z,0.75
2023-05-24T12:19:48.647Z,1.38
2023-05-24T12:20:52.185Z,1.22
2023-05-24T12:21:58.018Z,1.67
2023-05-24T12:23:00.355Z,1.07
2023-05-24T12:24:10.498Z,1.80
2023-05-24T12:25:13.769Z,0.83
2023-05-24T12:26:18.100Z,1.67
2023-05-24T12:27:22.059Z,1.44
2023-05-24T12:28:24.134Z,1.29
2023-05-24T12:29:26.188Z,1.73
2023-05-24T12:30:28.901Z,1.28
2023-05-24T12:31:30.972Z,1.35
2023-05-24T12:32:34.389Z,1.71
2023-05-24T12:33:37.351Z,1.30
2023-05-24T12:34:44.195Z,2.49
2023-05-24T12:35:48.119Z,1.44
2023-05-24T12:36:50.166Z,2.10
2023-05-24T12:38:00.700Z,1.79
2023-05-24T12:39:17.922Z,2.23
2023-05-24T12:40:21.442Z,2.31
2023-05-24T12:41:23.853Z,2.31
2023-05-24T12:42:25.884Z,2.78
2023-05-24T12:43:28.581Z,2.51
2023-05-24T12:44:35.071Z,2.20
2023-05-24T12:45:37.011Z,2.02
2023-05-24T12:46:39.122Z,1.85
2023-05-24T12:47:41.942Z,1.71
2023-05-24T12:48:43.991Z,2.03
2023-05-24T12:49:45.960Z,1.91
2023-05-24T12:50:47.952Z,2.19
2023-05-24T12:51:50.867Z,1.75
2023-05-24T12:52:53.844Z,2.05
2023-05-24T12:53:56.205Z,2.72
2023-05-24T12:54:58.287Z,2.97
2023-05-24T12:56:00.195Z,1.95
2023-05-24T12:57:02.392Z,2.67
2023-05-24T12:58:04.439Z,2.16
2023-05-24T12:59:07.088Z,2.05
2023-05-24T13:00:10.820Z,1.87
2023-05-24T13:01:12.869Z,2.14
2023-05-24T13:02:15.112Z,1.86
2023-05-24T13:03:18.994Z,1.75
2023-05-24T13:04:23.252Z,3.46
2023-05-24T13:05:26.836Z,2.04
2023-05-24T13:06:29.210Z,1.69
2023-05-24T13:07:31.090Z,2.11
2023-05-24T13:08:32.998Z,2.01
2023-05-24T13:09:34.861Z,2.21
2023-05-24T13:10:37.094Z,1.90
2023-05-24T13:11:39.389Z,2.07
2023-05-24T13:12:41.486Z,1.97
2023-05-24T13:13:44.474Z,1.97
2023-05-24T13:14:46.384Z,1.80
2023-05-24T13:15:48.287Z,1.84
2023-05-24T13:16:50.486Z,2.37
2023-05-24T13:17:52.903Z,3.11
2023-05-24T13:18:55.415Z,2.81
2023-05-24T13:20:00.959Z,2.73
2023-05-24T13:21:04.160Z,2.40
2023-05-24T13:22:06.085Z,2.06
2023-05-24T13:23:08.800Z,1.77
2023-05-24T13:24:13.822Z,1.69
2023-05-24T13:25:16.729Z,1.87
2023-05-24T13:26:18.730Z,1.95
2023-05-24T13:27:20.670Z,2.02
2023-05-24T13:28:22.669Z,2.22
2023-05-24T13:30:28.762Z,2.17
2023-05-24T13:31:30.676Z,2.14
2023-05-24T13:32:32.692Z,2.06
2023-05-24T13:33:34.771Z,2.25
2023-05-24T13:34:36.786Z,1.61
2023-05-24T13:35:38.767Z,1.72
2023-05-24T13:36:42.155Z,2.01
2023-05-24T13:37:44.160Z,1.93
2023-05-24T13:38:46.020Z,1.70
2023-05-24T13:39:47.928Z,1.87
2023-05-24T13:40:52.306Z,1.93
2023-05-24T13:41:54.364Z,2.76
2023-05-24T13:42:56.793Z,1.79
2023-05-24T13:43:58.677Z,2.01
2023-05-24T13:45:00.563Z,1.95
2023-05-24T13:46:02.940Z,2.24
2023-05-24T13:47:05.321Z,1.87
2023-05-24T13:48:07.303Z,2.33
2023-05-24T13:49:10.606Z,1.96
2023-05-24T13:50:12.736Z,1.86
2023-05-24T13:51:14.732Z,1.57
2023-05-24T13:52:16.641Z,1.71
2023-05-24T13:53:18.645Z,1.63
2023-05-24T13:54:20.699Z,1.98
2023-05-24T13:55:22.892Z,2.25
2023-05-24T13:56:25.461Z,1.75
2023-05-24T13:57:33.647Z,1.99
2023-05-24T13:58:31.190Z,1.66
2023-05-24T13:59:33.207Z,1.74
2023-05-24T14:00:35.710Z,1.91
2023-05-24T14:01:38.136Z,1.47
2023-05-24T14:02:41.773Z,1.56
2023-05-24T14:03:43.939Z,2.07
2023-05-24T14:04:45.902Z,2.13
2023-05-24T14:05:48.064Z,1.93
2023-05-24T14:06:51.325Z,2.15
2023-05-24T14:07:53.501Z,1.81
2023-05-24T14:08:55.714Z,1.93
2023-05-24T14:09:58.170Z,1.83
2023-05-24T14:11:00.190Z,1.93
2023-05-24T14:12:02.642Z,1.37